createdAt,value
2022-08-23T00:00:39.795Z,3.97
2022-08-23T00:03:26.328Z,4.10
2022-08-23T00:06:12.149Z,4.70
2022-08-23T00:08:58.027Z,4.07
2022-08-23T00:11:45.911Z,4.90
2022-08-23T00:14:33.543Z,4.10
2022-08-23T00:17:33.255Z,4.53
2022-08-23T00:20:21.750Z,4.77
2022-08-23T00:23:07.604Z,4.13
2022-08-23T00:25:53.308Z,4.50
2022-08-23T00:28:39.668Z,4.60
2022-08-23T00:31:25.991Z,4.30
2022-08-23T00:34:12.401Z,4.57
2022-08-23T00:36:58.835Z,5.40
2022-08-23T00:39:45.601Z,4.50
2022-08-23T00:42:59.729Z,4.97
2022-08-23T00:46:08.175Z,4.70
2022-08-23T00:48:55.263Z,4.70
2022-08-23T00:51:52.394Z,4.73
2022-08-23T00:54:41.324Z,4.80
2022-08-23T00:57:28.690Z,4.73
2022-08-23T01:00:15.516Z,4.33
2022-08-23T01:03:02.726Z,5.23
2022-08-23T01:05:52.753Z,4.50
2022-08-23T01:08:39.833Z,5.43
2022-08-23T01:11:32.917Z,4.50
2022-08-23T01:14:26.408Z,4.40
2022-08-23T01:17:15.396Z,4.40
2022-08-23T01:20:07.783Z,5.60
2022-08-23T01:23:14.691Z,4.40
2022-08-23T01:26:01.632Z,4.10
2022-08-23T01:28:47.633Z,4.67
2022-08-23T01:31:34.354Z,3.83
2022-08-23T01:34:25.732Z,4.10
2022-08-23T01:37:11.873Z,4.47
2022-08-23T01:39:58.435Z,4.43
2022-08-23T01:42:44.810Z,4.47
2022-08-23T01:45:32.095Z,4.50
2022-08-23T01:48:18.801Z,4.70
2022-08-23T01:51:05.166Z,4.63
2022-08-23T01:53:52.460Z,5.03
2022-08-23T01:56:40.631Z,4.77
2022-08-23T01:59:28.535Z,4.83
2022-08-23T02:02:15.757Z,4.93
2022-08-23T02:05:02.120Z,4.77
2022-08-23T02:07:48.925Z,5.37
2022-08-23T02:10:36.626Z,6.20
2022-08-23T02:13:23.218Z,4.87
2022-08-23T02:16:10.343Z,5.50
2022-08-23T02:19:04.528Z,5.63
2022-08-23T02:21:53.113Z,5.30
2022-08-23T02:24:42.173Z,5.13
2022-08-23T02:27:27.968Z,5.57
2022-08-23T02:30:15.332Z,6.27
2022-08-23T02:33:02.253Z,6.07
2022-08-23T02:35:50.798Z,5.30
2022-08-23T02:38:36.741Z,5.10
2022-08-23T02:41:22.942Z,4.70
2022-08-23T02:44:09.130Z,4.80
2022-08-23T02:46:55.308Z,5.00
2022-08-23T02:49:42.273Z,4.53
2022-08-23T02:52:27.984Z,5.00
2022-08-23T02:55:14.121Z,4.53
2022-08-23T02:57:59.986Z,4.60
2022-08-23T03:00:51.101Z,4.93
2022-08-23T03:03:39.668Z,4.90
2022-08-23T03:06:26.481Z,4.97
2022-08-23T03:09:12.802Z,4.83
2022-08-23T03:11:58.671Z,4.83
2022-08-23T03:14:45.177Z,5.57
2022-08-23T03:17:32.331Z,5.33
2022-08-23T03:20:20.038Z,5.10
2022-08-23T03:23:06.439Z,4.70
2022-08-23T03:25:52.377Z,5.07
2022-08-23T03:28:46.655Z,7.73
2022-08-23T03:31:32.583Z,5.40
2022-08-23T03:34:24.774Z,5.60
2022-08-23T03:37:11.327Z,5.23
2022-08-23T03:39:57.197Z,5.60
2022-08-23T03:42:44.122Z,5.67
2022-08-23T03:45:31.178Z,5.67
2022-08-23T03:48:17.487Z,5.03
2022-08-23T03:51:03.843Z,7.00
2022-08-23T03:53:49.794Z,5.53
2022-08-23T03:56:36.972Z,5.70
2022-08-23T03:59:23.917Z,4.90
2022-08-23T04:02:10.935Z,5.20
2022-08-23T04:04:58.282Z,6.90
2022-08-23T04:07:55.470Z,7.00
2022-08-23T04:10:43.980Z,5.93
2022-08-23T04:13:29.801Z,5.47
2022-08-23T04:16:18.804Z,5.20
2022-08-23T04:19:05.554Z,5.60
2022-08-23T04:21:55.423Z,6.03
2022-08-23T04:24:43.443Z,6.03
2022-08-23T04:27:29.680Z,5.23
2022-08-23T04:30:15.403Z,6.27
2022-08-23T04:33:01.922Z,6.10
2022-08-23T04:35:49.426Z,7.80
2022-08-23T04:38:36.453Z,6.97
2022-08-23T04:41:43.692Z,6.30
2022-08-23T04:44:29.566Z,6.60
2022-08-23T04:47:17.546Z,6.60
2022-08-23T04:50:04.043Z,6.00
2022-08-23T04:52:50.781Z,5.97
2022-08-23T04:55:38.104Z,5.40
2022-08-23T04:58:25.145Z,6.40
2022-08-23T05:01:11.889Z,6.50
2022-08-23T05:03:57.737Z,7.57
2022-08-23T05:06:45.811Z,6.20
2022-08-23T05:09:31.548Z,6.40
2022-08-23T05:12:17.425Z,6.50
2022-08-23T05:15:09.619Z,6.37
2022-08-23T05:17:58.299Z,6.53
2022-08-23T05:20:44.352Z,5.53
2022-08-23T05:23:31.788Z,5.40
2022-08-23T05:26:24.510Z,6.60
2022-08-23T05:29:10.095Z,6.13
2022-08-23T05:32:02.692Z,5.87
2022-08-23T05:34:49.085Z,6.60
2022-08-23T05:37:34.599Z,6.80
2022-08-23T05:40:20.660Z,6.73
2022-08-23T05:43:20.925Z,6.20
2022-08-23T05:46:12.906Z,7.10
2022-08-23T05:49:01.406Z,6.47
2022-08-23T05:51:47.249Z,6.50
2022-08-23T05:54:39.142Z,7.40
2022-08-23T05:57:40.697Z,6.10
2022-08-23T06:00:26.462Z,6.63
2022-08-23T06:03:24.349Z,7.47
2022-08-23T06:06:12.850Z,7.03
2022-08-23T06:08:58.878Z,5.87
2022-08-23T06:11:46.672Z,5.90
2022-08-23T06:14:32.541Z,7.33
2022-08-23T06:17:18.527Z,7.30
2022-08-23T06:20:07.082Z,6.50
2022-08-23T06:22:57.196Z,7.00
2022-08-23T06:25:42.999Z,7.63
2022-08-23T06:28:50.368Z,7.83
2022-08-23T06:31:48.722Z,6.27
2022-08-23T06:34:45.770Z,7.00
2022-08-23T06:38:04.065Z,6.93
2022-08-23T06:41:10.556Z,5.90
2022-08-23T06:44:15.389Z,6.20
2022-08-23T06:47:14.846Z,6.43
2022-08-23T06:50:00.648Z,6.60
2022-08-23T06:53:06.995Z,7.03
2022-08-23T06:56:15.204Z,7.50
2022-08-23T06:59:23.134Z,6.80
2022-08-23T07:02:20.424Z,6.53
2022-08-23T07:05:25.160Z,6.77
2022-08-23T07:08:24.858Z,5.97
2022-08-23T07:11:11.273Z,6.30
2022-08-23T07:14:00.872Z,7.20
2022-08-23T07:16:50.041Z,5.97
2022-08-23T07:19:36.204Z,5.47
2022-08-23T07:22:24.854Z,5.87
2022-08-23T07:25:11.726Z,6.20
2022-08-23T07:27:59.679Z,5.80
2022-08-23T07:30:46.955Z,6.90
2022-08-23T07:33:33.427Z,6.63
2022-08-23T07:36:30.376Z,11.20
2022-08-23T07:39:17.671Z,6.67
2022-08-23T07:42:15.945Z,6.30
2022-08-23T07:45:10.314Z,6.27
2022-08-23T07:48:01.014Z,6.20
2022-08-23T07:50:54.765Z,8.03
2022-08-23T07:53:46.551Z,5.53
2022-08-23T07:56:35.252Z,5.80
2022-08-23T07:59:29.448Z,6.07
2022-08-23T08:02:29.838Z,6.70
2022-08-23T08:05:21.062Z,6.27
2022-08-23T08:08:08.367Z,5.10
2022-08-23T08:10:55.412Z,26.83
2022-08-23T08:13:42.306Z,11.33
2022-08-23T08:16:30.589Z,6.70
2022-08-23T08:19:18.976Z,7.00
2022-08-23T08:22:31.498Z,6.40
2022-08-23T08:25:49.288Z,6.30
2022-08-23T08:28:37.723Z,6.13
2022-08-23T08:31:25.683Z,5.50
2022-08-23T08:34:13.332Z,6.03
2022-08-23T08:36:59.817Z,6.90
2022-08-23T08:39:46.200Z,6.80
2022-08-23T08:42:34.002Z,7.33
2022-08-23T08:45:23.516Z,6.23
2022-08-23T08:48:15.341Z,5.17
2022-08-23T08:51:11.385Z,5.77
2022-08-23T08:53:58.348Z,6.20
2022-08-23T08:56:51.604Z,5.47
2022-08-23T08:59:57.057Z,5.50
2022-08-23T09:02:45.139Z,4.87
2022-08-23T09:05:34.208Z,5.40
2022-08-23T09:08:31.210Z,5.20
2022-08-23T09:11:24.228Z,5.60
2022-08-23T09:14:16.055Z,5.53
2022-08-23T09:17:05.567Z,5.60
2022-08-23T09:19:53.953Z,6.00
2022-08-23T09:22:51.521Z,5.50
2022-08-23T09:25:52.811Z,6.00
2022-08-23T09:28:40.654Z,4.93
2022-08-23T09:31:39.889Z,5.67
2022-08-23T09:34:35.009Z,5.27
2022-08-23T09:37:28.609Z,5.70
2022-08-23T09:40:34.272Z,5.93
2022-08-23T09:43:26.061Z,5.60
2022-08-23T09:46:25.425Z,5.70
2022-08-23T09:49:30.931Z,5.47
2022-08-23T09:52:34.602Z,5.77
2022-08-23T09:55:31.910Z,5.73
2022-08-23T09:58:36.319Z,5.43
2022-08-23T10:01:23.882Z,4.70
2022-08-23T10:04:38.516Z,5.47
2022-08-23T10:07:26.881Z,5.63
2022-08-23T10:10:27.031Z,5.40
2022-08-23T10:13:16.143Z,5.37
2022-08-23T10:16:02.534Z,5.30
2022-08-23T10:18:54.826Z,6.50
2022-08-23T10:21:42.483Z,5.87
2022-08-23T10:24:47.122Z,5.60
2022-08-23T10:28:01.641Z,6.80
2022-08-23T10:30:59.953Z,5.53
2022-08-23T10:33:55.209Z,5.53
2022-08-23T10:36:52.080Z,5.20
2022-08-23T10:39:49.410Z,5.10
2022-08-23T10:42:42.048Z,5.10
2022-08-23T10:45:38.330Z,6.33
2022-08-23T10:48:36.949Z,6.17
2022-08-23T10:51:31.796Z,5.50
2022-08-23T10:54:46.021Z,5.30
2022-08-23T10:57:38.706Z,5.87
2022-08-23T11:00:29.671Z,5.37
2022-08-23T11:03:28.799Z,5.30
2022-08-23T11:06:31.813Z,5.80
2022-08-23T11:09:20.325Z,5.90
2022-08-23T11:12:08.307Z,4.87
2022-08-23T11:14:57.823Z,5.10
2022-08-23T11:17:52.115Z,5.70
2022-08-23T11:20:50.438Z,5.77
2022-08-23T11:24:00.176Z,6.13
2022-08-23T11:26:47.837Z,5.40
2022-08-23T11:29:35.144Z,5.23
2022-08-23T11:32:47.372Z,5.30
2022-08-23T11:35:43.032Z,5.50
2022-08-23T11:38:48.429Z,4.90
2022-08-23T11:41:36.878Z,4.80
2022-08-23T11:44:24.821Z,4.87
2022-08-23T11:47:11.549Z,4.97
2022-08-23T11:50:19.350Z,5.47
2022-08-23T11:53:10.650Z,5.17
2022-08-23T11:56:06.735Z,5.33
2022-08-23T11:58:58.551Z,5.80
2022-08-23T12:01:48.691Z,5.40
2022-08-23T12:04:37.581Z,5.03
2022-08-23T12:07:42.145Z,6.00
2022-08-23T12:10:43.318Z,4.90
2022-08-23T12:13:45.230Z,5.50
2022-08-23T12:16:32.676Z,5.40
2022-08-23T12:19:22.184Z,5.37
2022-08-23T12:22:34.744Z,5.40
2022-08-23T12:25:21.312Z,5.90
2022-08-23T12:28:19.480Z,5.27
2022-08-23T12:31:18.832Z,6.77
2022-08-23T12:34:20.335Z,6.90
2022-08-23T12:37:26.257Z,5.30
2022-08-23T12:40:17.491Z,6.60
2022-08-23T12:43:08.034Z,5.53
2022-08-23T12:45:55.901Z,6.20
2022-08-23T12:48:46.581Z,5.03
2022-08-23T12:51:32.383Z,5.60
2022-08-23T12:54:22.514Z,5.80
2022-08-23T12:57:12.871Z,5.77
2022-08-23T13:00:17.358Z,5.17
2022-08-23T13:03:08.319Z,5.40
2022-08-23T13:06:03.361Z,5.80
2022-08-23T13:09:06.271Z,5.37
2022-08-23T13:11:52.395Z,5.80
2022-08-23T13:14:40.994Z,5.87
2022-08-23T13:17:27.696Z,6.00
2022-08-23T13:20:22.038Z,5.30
2022-08-23T13:23:09.291Z,6.70
2022-08-23T13:25:55.506Z,5.37
2022-08-23T13:28:41.539Z,5.80
2022-08-23T13:31:27.524Z,4.53
2022-08-23T13:34:31.107Z,6.93
2022-08-23T13:37:21.669Z,5.30
2022-08-23T13:40:11.850Z,5.67
2022-08-23T13:43:10.088Z,5.43
2022-08-23T13:46:15.081Z,5.53
2022-08-23T13:49:03.090Z,8.70
2022-08-23T13:52:18.631Z,12.27
2022-08-23T13:55:06.920Z,5.50
2022-08-23T13:57:52.778Z,5.40
2022-08-23T14:00:39.175Z,5.20
2022-08-23T14:03:59.668Z,5.80
2022-08-23T14:06:48.801Z,5.83
2022-08-23T14:09:35.347Z,5.40
2022-08-23T14:12:23.221Z,5.47
2022-08-23T14:15:10.401Z,6.23
2022-08-23T14:17:56.513Z,5.80
2022-08-23T14:23:43.895Z,5.70
2022-08-23T14:26:50.117Z,5.37
2022-08-23T14:29:43.030Z,6.13
2022-08-23T14:32:28.928Z,6.10
2022-08-23T14:35:14.802Z,5.80
2022-08-23T14:38:03.277Z,5.53
2022-08-23T14:41:00.475Z,7.00
2022-08-23T14:43:46.352Z,4.90
2022-08-23T14:46:32.026Z,5.43
2022-08-23T14:49:20.503Z,5.33
2022-08-23T14:52:06.416Z,5.10
2022-08-23T14:54:52.335Z,5.27
2022-08-23T14:57:38.292Z,4.93
2022-08-23T15:00:26.376Z,5.87
2022-08-23T15:03:17.975Z,5.90
2022-08-23T15:06:03.812Z,5.57
2022-08-23T15:08:50.400Z,5.33
2022-08-23T15:14:46.598Z,5.30
2022-08-23T15:17:36.070Z,5.00
2022-08-23T15:20:24.048Z,5.70
2022-08-23T15:23:10.323Z,5.27
2022-08-23T15:25:56.719Z,5.30
2022-08-23T15:28:42.582Z,5.33
2022-08-23T15:31:28.831Z,5.10
2022-08-23T15:34:14.496Z,5.10
2022-08-23T15:37:02.189Z,5.33
2022-08-23T15:39:52.327Z,5.10
2022-08-23T15:42:38.707Z,5.37
2022-08-23T15:45:24.254Z,5.40
2022-08-23T15:48:20.614Z,5.93
2022-08-23T15:51:06.680Z,5.83
2022-08-23T15:53:52.352Z,5.40
2022-08-23T15:56:46.185Z,7.27
2022-08-23T15:59:34.605Z,7.60
2022-08-23T16:02:20.351Z,5.03
2022-08-23T16:05:08.481Z,4.93
2022-08-23T16:07:56.101Z,4.97
2022-08-23T16:10:44.081Z,7.07
2022-08-23T16:13:30.328Z,7.20
2022-08-23T16:16:21.431Z,5.80
2022-08-23T16:19:08.210Z,5.30
2022-08-23T16:21:55.224Z,5.97
2022-08-23T16:24:41.275Z,5.60
2022-08-23T16:27:28.576Z,6.30
2022-08-23T16:30:14.670Z,5.20
2022-08-23T16:33:00.326Z,5.50
2022-08-23T16:35:46.154Z,6.50
2022-08-23T16:38:32.022Z,5.53
2022-08-23T16:41:18.084Z,5.30
2022-08-23T16:44:04.056Z,5.40
2022-08-23T16:46:49.537Z,5.43
2022-08-23T16:49:35.566Z,5.70
2022-08-23T16:52:28.518Z,4.90
2022-08-23T16:55:21.870Z,5.70
2022-08-23T16:58:07.970Z,4.90
2022-08-23T17:00:53.750Z,4.73
2022-08-23T17:03:40.646Z,5.97
2022-08-23T17:06:26.447Z,8.80
2022-08-23T17:09:12.991Z,6.47
2022-08-23T17:11:59.147Z,6.13
2022-08-23T17:14:46.896Z,7.17
2022-08-23T17:17:33.955Z,5.33
2022-08-23T17:20:21.141Z,6.57
2022-08-23T17:23:08.124Z,5.23
2022-08-23T17:25:54.421Z,6.17
2022-08-23T17:28:42.888Z,8.00
2022-08-23T17:31:29.969Z,5.00
2022-08-23T17:34:15.747Z,6.77
2022-08-23T17:37:02.212Z,6.27
2022-08-23T17:39:49.580Z,5.43
2022-08-23T17:42:35.648Z,5.50
2022-08-23T17:45:21.615Z,5.20
2022-08-23T17:48:08.045Z,5.77
2022-08-23T17:50:55.920Z,5.90
2022-08-23T17:53:41.947Z,5.20
2022-08-23T17:56:28.048Z,5.87
2022-08-23T17:59:13.896Z,6.60
2022-08-23T18:01:59.587Z,7.30
2022-08-23T18:04:45.483Z,6.27
2022-08-23T18:07:31.370Z,5.30
2022-08-23T18:10:17.563Z,7.40
2022-08-23T18:13:04.287Z,7.37
2022-08-23T18:18:52.962Z,6.10
2022-08-23T18:21:39.785Z,5.70
2022-08-23T18:24:25.596Z,6.13
2022-08-23T18:27:30.164Z,6.47
2022-08-23T18:30:16.170Z,5.77
2022-08-23T18:33:02.307Z,6.07
2022-08-23T18:35:51.118Z,8.27
2022-08-23T18:38:36.869Z,8.47
2022-08-23T18:41:23.732Z,15.37
2022-08-23T18:44:10.220Z,14.20
2022-08-23T18:46:55.912Z,9.27
2022-08-23T18:49:42.269Z,10.60
2022-08-23T18:52:31.031Z,10.57
2022-08-23T18:55:20.007Z,11.30
2022-08-23T18:58:05.708Z,9.50
2022-08-23T19:00:51.877Z,10.93
2022-08-23T19:03:37.749Z,9.40
2022-08-23T19:06:23.928Z,9.20
2022-08-23T19:09:12.904Z,8.77
2022-08-23T19:12:02.995Z,9.47
2022-08-23T19:14:48.946Z,8.73
2022-08-23T19:17:34.701Z,8.87
2022-08-23T19:20:23.539Z,9.67
2022-08-23T19:23:09.640Z,9.63
2022-08-23T19:25:56.084Z,8.77
2022-08-23T19:28:42.072Z,8.43
2022-08-23T19:31:33.493Z,8.33
2022-08-23T19:34:23.376Z,8.83
2022-08-23T19:37:20.392Z,8.40
2022-08-23T19:40:09.117Z,8.40
2022-08-23T19:42:55.412Z,11.73
2022-08-23T19:45:41.827Z,10.97
2022-08-23T19:48:27.743Z,12.97
2022-08-23T19:51:16.792Z,12.07
2022-08-23T19:54:11.306Z,10.60
2022-08-23T19:57:00.564Z,11.60
2022-08-23T19:59:46.774Z,9.83
2022-08-23T20:02:32.622Z,12.57
2022-08-23T20:05:18.802Z,11.30
2022-08-23T20:08:04.891Z,11.00
2022-08-23T20:10:50.871Z,8.30
2022-08-23T20:13:37.457Z,8.40
2022-08-23T20:16:23.973Z,9.57
2022-08-23T20:19:10.566Z,9.67
2022-08-23T20:22:16.435Z,9.20
2022-08-23T20:25:03.224Z,9.87
2022-08-23T20:27:49.227Z,9.33
2022-08-23T20:30:36.036Z,10.30
2022-08-23T20:33:21.789Z,8.40
2022-08-23T20:36:07.732Z,8.67
2022-08-23T20:38:53.638Z,12.57
2022-08-23T20:41:41.052Z,11.60
2022-08-23T20:44:26.771Z,10.13
2022-08-23T20:47:13.132Z,9.90
2022-08-23T20:49:58.960Z,9.73
2022-08-23T20:52:45.009Z,8.70
2022-08-23T20:55:33.413Z,8.83
2022-08-23T20:58:21.130Z,9.83
2022-08-23T21:01:10.264Z,10.93
2022-08-23T21:03:57.090Z,10.80
2022-08-23T21:06:45.760Z,10.53
2022-08-23T21:09:32.036Z,10.33
2022-08-23T21:12:17.926Z,10.57
2022-08-23T21:15:08.967Z,9.93
2022-08-23T21:17:56.243Z,11.43
2022-08-23T21:20:43.112Z,11.20
2022-08-23T21:23:31.594Z,11.40
2022-08-23T21:26:17.703Z,10.30
2022-08-23T21:29:04.230Z,10.50
2022-08-23T21:31:49.878Z,9.20
2022-08-23T21:34:35.737Z,9.13
2022-08-23T21:41:00.564Z,9.60
2022-08-23T21:43:46.111Z,10.27
2022-08-23T21:46:31.932Z,9.70
2022-08-23T21:49:18.429Z,8.87
2022-08-23T21:52:05.437Z,8.60
2022-08-23T21:54:51.126Z,8.00
2022-08-23T21:57:37.124Z,8.53
2022-08-23T22:00:23.171Z,9.00
2022-08-23T22:03:09.313Z,8.40
2022-08-23T22:05:55.544Z,7.87
2022-08-23T22:08:42.476Z,7.37
2022-08-23T22:11:28.998Z,8.00
2022-08-23T22:14:16.842Z,8.53
2022-08-23T22:17:03.035Z,8.90
2022-08-23T22:19:49.132Z,7.93
2022-08-23T22:22:34.964Z,7.40
2022-08-23T22:25:20.744Z,7.80
2022-08-23T22:28:06.695Z,8.77
2022-08-23T22:30:53.017Z,9.53
2022-08-23T22:33:40.883Z,8.87
2022-08-23T22:36:28.231Z,9.47
2022-08-23T22:39:15.273Z,8.00
2022-08-23T22:42:01.024Z,7.77
2022-08-23T22:44:48.349Z,7.70
2022-08-23T22:47:34.345Z,8.00
2022-08-23T22:50:20.189Z,7.60
2022-08-23T22:53:06.117Z,7.20
2022-08-23T22:55:52.390Z,7.27
2022-08-23T22:58:40.354Z,7.60
2022-08-23T23:01:28.724Z,7.00
2022-08-23T23:04:16.022Z,7.10
2022-08-23T23:07:03.338Z,7.70
2022-08-23T23:09:49.245Z,8.57
2022-08-23T23:12:35.096Z,6.63
2022-08-23T23:15:21.068Z,7.33
2022-08-23T23:18:08.667Z,6.73
2022-08-23T23:20:58.115Z,6.70
2022-08-23T23:23:43.918Z,6.47
2022-08-23T23:26:29.833Z,7.37
2022-08-23T23:29:17.896Z,7.00
2022-08-23T23:32:05.530Z,6.60
2022-08-23T23:34:51.569Z,6.27
2022-08-23T23:37:39.384Z,7.13
2022-08-23T23:40:25.974Z,6.43
2022-08-23T23:43:13.305Z,6.80
2022-08-23T23:45:59.754Z,6.80
2022-08-23T23:48:49.126Z,6.10
2022-08-23T23:51:34.893Z,6.77
2022-08-23T23:54:20.974Z,7.73
2022-08-23T23:57:07.502Z,6.90
2022-08-23T23:59:54.242Z,5.87
